sensor_id;sensor_type;location;lat;lon;timestamp;pressure;altitude;pressure_sealevel;temperature;humidity
37066;BME280;22981;43.080;25.550;2023-03-19T00:02:05;100279.77;;;6.63;58.86
37066;BME280;22981;43.080;25.550;2023-03-19T00:04:33;100277.97;;;6.60;58.95
37066;BME280;22981;43.080;25.550;2023-03-19T00:07:01;100278.13;;;6.58;58.97
37066;BME280;22981;43.080;25.550;2023-03-19T00:09:28;100278.97;;;6.55;59.00
37066;BME280;22981;43.080;25.550;2023-03-19T00:11:56;100276.17;;;6.52;59.07
37066;BME280;22981;43.080;25.550;2023-03-19T00:14:23;100278.83;;;6.52;59.08
37066;BME280;22981;43.080;25.550;2023-03-19T00:16:51;100280.30;;;6.55;59.09
37066;BME280;22981;43.080;25.550;2023-03-19T00:19:18;100279.47;;;6.54;59.11
37066;BME280;22981;43.080;25.550;2023-03-19T00:21:46;100277.99;;;6.56;59.09
37066;BME280;22981;43.080;25.550;2023-03-19T00:24:14;100274.48;;;6.55;59.07
37066;BME280;22981;43.080;25.550;2023-03-19T00:26:43;100271.68;;;6.52;59.13
37066;BME280;22981;43.080;25.550;2023-03-19T00:29:12;100267.50;;;6.54;59.17
37066;BME280;22981;43.080;25.550;2023-03-19T00:31:40;100266.02;;;6.56;59.25
37066;BME280;22981;43.080;25.550;2023-03-19T00:34:08;100269.50;;;6.56;59.31
37066;BME280;22981;43.080;25.550;2023-03-19T00:36:37;100272.80;;;6.58;59.42
37066;BME280;22981;43.080;25.550;2023-03-19T00:39:05;100268.16;;;6.60;59.46
37066;BME280;22981;43.080;25.550;2023-03-19T00:41:34;100265.50;;;6.60;59.58
37066;BME280;22981;43.080;25.550;2023-03-19T00:44:02;100267.14;;;6.61;59.70
37066;BME280;22981;43.080;25.550;2023-03-19T00:46:31;100264.67;;;6.60;59.83
37066;BME280;22981;43.080;25.550;2023-03-19T00:48:59;100263.16;;;6.61;60.00
37066;BME280;22981;43.080;25.550;2023-03-19T00:51:27;100263.48;;;6.62;60.06
37066;BME280;22981;43.080;25.550;2023-03-19T00:53:54;100270.45;;;6.63;60.04
37066;BME280;22981;43.080;25.550;2023-03-19T00:56:22;100267.47;;;6.62;60.14
37066;BME280;22981;43.080;25.550;2023-03-19T00:58:49;100271.45;;;6.62;60.25
37066;BME280;22981;43.080;25.550;2023-03-19T01:01:17;100274.94;;;6.63;60.43
37066;BME280;22981;43.080;25.550;2023-03-19T01:03:45;100272.28;;;6.63;60.60
37066;BME280;22981;43.080;25.550;2023-03-19T01:06:13;100271.64;;;6.61;60.84
37066;BME280;22981;43.080;25.550;2023-03-19T01:08:41;100264.19;;;6.56;61.08
37066;BME280;22981;43.080;25.550;2023-03-19T01:11:11;100270.33;;;6.57;61.23
37066;BME280;22981;43.080;25.550;2023-03-19T01:13:40;100272.80;;;6.58;61.37
37066;BME280;22981;43.080;25.550;2023-03-19T01:16:08;100264.32;;;6.59;61.48
37066;BME280;22981;43.080;25.550;2023-03-19T01:18:36;100270.31;;;6.61;61.61
37066;BME280;22981;43.080;25.550;2023-03-19T01:21:04;100266.14;;;6.62;61.71
37066;BME280;22981;43.080;25.550;2023-03-19T01:23:33;100264.30;;;6.63;61.87
37066;BME280;22981;43.080;25.550;2023-03-19T01:26:01;100271.30;;;6.64;61.92
37066;BME280;22981;43.080;25.550;2023-03-19T01:28:28;100269.28;;;6.66;62.00
37066;BME280;22981;43.080;25.550;2023-03-19T01:31:00;100267.45;;;6.66;62.12
37066;BME280;22981;43.080;25.550;2023-03-19T01:33:28;100262.15;;;6.62;62.19
37066;BME280;22981;43.080;25.550;2023-03-19T01:35:56;100269.14;;;6.59;62.28
37066;BME280;22981;43.080;25.550;2023-03-19T01:38:24;100272.19;;;6.52;62.49
37066;BME280;22981;43.080;25.550;2023-03-19T01:40:52;100270.70;;;6.45;62.70
37066;BME280;22981;43.080;25.550;2023-03-19T01:43:26;100275.52;;;6.46;62.78
37066;BME280;22981;43.080;25.550;2023-03-19T01:45:54;100269.88;;;6.45;62.85
37066;BME280;22981;43.080;25.550;2023-03-19T01:48:37;100278.03;;;6.47;62.86
37066;BME280;22981;43.080;25.550;2023-03-19T01:51:05;100276.33;;;6.50;62.81
37066;BME280;22981;43.080;25.550;2023-03-19T01:53:34;100279.47;;;6.54;62.77
37066;BME280;22981;43.080;25.550;2023-03-19T01:56:10;100288.63;;;6.56;62.81
37066;BME280;22981;43.080;25.550;2023-03-19T01:58:39;100286.30;;;6.57;62.92
37066;BME280;22981;43.080;25.550;2023-03-19T02:01:08;100287.12;;;6.57;62.98
37066;BME280;22981;43.080;25.550;2023-03-19T02:03:37;100280.66;;;6.56;63.14
37066;BME280;22981;43.080;25.550;2023-03-19T02:06:05;100278.31;;;6.57;63.27
37066;BME280;22981;43.080;25.550;2023-03-19T02:08:35;100284.45;;;6.57;63.44
37066;BME280;22981;43.080;25.550;2023-03-19T02:11:04;100282.96;;;6.55;63.74
37066;BME280;22981;43.080;25.550;2023-03-19T02:13:33;100288.78;;;6.54;64.08
37066;BME280;22981;43.080;25.550;2023-03-19T02:16:02;100292.29;;;6.50;64.39
37066;BME280;22981;43.080;25.550;2023-03-19T02:18:30;100292.30;;;6.46;64.70
37066;BME280;22981;43.080;25.550;2023-03-19T02:21:04;100291.49;;;6.42;65.11
37066;BME280;22981;43.080;25.550;2023-03-19T02:24:09;100287.72;;;6.32;65.62
37066;BME280;22981;43.080;25.550;2023-03-19T02:26:37;100297.22;;;6.26;66.03
37066;BME280;22981;43.080;25.550;2023-03-19T02:29:06;100297.57;;;6.15;66.40
37066;BME280;22981;43.080;25.550;2023-03-19T02:31:33;100305.73;;;6.10;66.78
37066;BME280;22981;43.080;25.550;2023-03-19T02:34:31;100297.59;;;6.07;67.08
37066;BME280;22981;43.080;25.550;2023-03-19T02:36:43;100299.42;;;6.07;67.34
37066;BME280;22981;43.080;25.550;2023-03-19T02:39:09;100294.30;;;6.01;67.56
37066;BME280;22981;43.080;25.550;2023-03-19T02:41:36;100294.48;;;5.95;67.80
37066;BME280;22981;43.080;25.550;2023-03-19T02:44:06;100294.61;;;5.86;68.18
37066;BME280;22981;43.080;25.550;2023-03-19T02:46:37;100294.47;;;5.79;68.47
37066;BME280;22981;43.080;25.550;2023-03-19T02:49:04;100296.45;;;5.81;68.68
37066;BME280;22981;43.080;25.550;2023-03-19T02:51:32;100295.12;;;5.85;68.83
37066;BME280;22981;43.080;25.550;2023-03-19T02:53:59;100298.09;;;5.90;68.92
37066;BME280;22981;43.080;25.550;2023-03-19T02:56:27;100299.80;;;5.95;68.94
37066;BME280;22981;43.080;25.550;2023-03-19T02:58:55;100302.42;;;5.99;68.94
37066;BME280;22981;43.080;25.550;2023-03-19T03:01:22;100302.91;;;6.03;69.01
37066;BME280;22981;43.080;25.550;2023-03-19T03:03:50;100303.09;;;6.06;69.08
37066;BME280;22981;43.080;25.550;2023-03-19T03:06:18;100303.91;;;6.06;69.18
37066;BME280;22981;43.080;25.550;2023-03-19T03:08:45;100304.09;;;6.09;69.19
37066;BME280;22981;43.080;25.550;2023-03-19T03:11:13;100304.73;;;6.11;69.28
37066;BME280;22981;43.080;25.550;2023-03-19T03:13:40;100303.72;;;6.12;69.42
37066;BME280;22981;43.080;25.550;2023-03-19T03:16:08;100303.41;;;6.11;69.53
37066;BME280;22981;43.080;25.550;2023-03-19T03:18:35;100305.05;;;6.12;69.61
37066;BME280;22981;43.080;25.550;2023-03-19T03:21:03;100306.73;;;6.13;69.75
37066;BME280;22981;43.080;25.550;2023-03-19T03:23:31;100307.20;;;6.12;69.87
37066;BME280;22981;43.080;25.550;2023-03-19T03:25:58;100307.06;;;6.14;69.93
37066;BME280;22981;43.080;25.550;2023-03-19T03:28:26;100303.39;;;6.15;70.06
37066;BME280;22981;43.080;25.550;2023-03-19T03:31:00;100306.38;;;6.12;70.19
37066;BME280;22981;43.080;25.550;2023-03-19T03:33:29;100304.23;;;6.11;70.30
37066;BME280;22981;43.080;25.550;2023-03-19T03:35:57;100311.05;;;6.10;70.34
37066;BME280;22981;43.080;25.550;2023-03-19T03:38:24;100313.39;;;6.09;70.36
37066;BME280;22981;43.080;25.550;2023-03-19T03:40:52;100306.25;;;6.05;70.42
37066;BME280;22981;43.080;25.550;2023-03-19T03:43:21;100313.72;;;6.06;70.56
37066;BME280;22981;43.080;25.550;2023-03-19T03:45:48;100322.70;;;6.09;70.58
37066;BME280;22981;43.080;25.550;2023-03-19T03:48:16;100320.17;;;6.11;70.58
37066;BME280;22981;43.080;25.550;2023-03-19T03:50:44;100321.68;;;6.14;70.67
37066;BME280;22981;43.080;25.550;2023-03-19T03:53:11;100318.69;;;6.17;70.65
37066;BME280;22981;43.080;25.550;2023-03-19T03:55:40;100319.02;;;6.18;70.58
37066;BME280;22981;43.080;25.550;2023-03-19T03:58:07;100320.84;;;6.17;70.61
37066;BME280;22981;43.080;25.550;2023-03-19T04:00:35;100309.03;;;6.16;70.71
37066;BME280;22981;43.080;25.550;2023-03-19T04:03:03;100312.69;;;6.19;70.76
37066;BME280;22981;43.080;25.550;2023-03-19T04:05:31;100313.20;;;6.18;70.77
37066;BME280;22981;43.080;25.550;2023-03-19T04:07:59;100306.87;;;6.19;70.75
37066;BME280;22981;43.080;25.550;2023-03-19T04:10:26;100305.03;;;6.20;70.79
37066;BME280;22981;43.080;25.550;2023-03-19T04:12:54;100306.87;;;6.19;70.82
37066;BME280;22981;43.080;25.550;2023-03-19T04:15:21;100303.38;;;6.19;70.89
37066;BME280;22981;43.080;25.550;2023-03-19T04:17:49;100300.41;;;6.18;70.94
37066;BME280;22981;43.080;25.550;2023-03-19T04:20:17;100299.58;;;6.17;70.96
37066;BME280;22981;43.080;25.550;2023-03-19T04:22:45;100298.75;;;6.17;70.99
37066;BME280;22981;43.080;25.550;2023-03-19T04:25:12;100297.06;;;6.16;71.06
37066;BME280;22981;43.080;25.550;2023-03-19T04:27:40;100291.93;;;6.14;71.13
37066;BME280;22981;43.080;25.550;2023-03-19T04:30:09;100295.42;;;6.15;71.16
37066;BME280;22981;43.080;25.550;2023-03-19T04:32:37;100299.08;;;6.14;71.17
37066;BME280;22981;43.080;25.550;2023-03-19T04:35:05;100302.25;;;6.13;71.21
37066;BME280;22981;43.080;25.550;2023-03-19T04:37:32;100304.23;;;6.11;71.30
37066;BME280;22981;43.080;25.550;2023-03-19T04:40:00;100303.08;;;6.10;71.39
37066;BME280;22981;43.080;25.550;2023-03-19T04:42:28;100306.39;;;6.08;71.51
37066;BME280;22981;43.080;25.550;2023-03-19T04:44:55;100308.73;;;6.07;71.56
37066;BME280;22981;43.080;25.550;2023-03-19T04:47:23;100308.41;;;6.06;71.55
37066;BME280;22981;43.080;25.550;2023-03-19T04:49:50;100301.77;;;6.01;71.60
37066;BME280;22981;43.080;25.550;2023-03-19T04:52:18;100310.07;;;5.98;71.69
37066;BME280;22981;43.080;25.550;2023-03-19T04:54:45;100307.09;;;5.93;71.74
37066;BME280;22981;43.080;25.550;2023-03-19T04:57:13;100310.41;;;5.87;71.82
37066;BME280;22981;43.080;25.550;2023-03-19T04:59:41;100310.91;;;5.87;71.85
37066;BME280;22981;43.080;25.550;2023-03-19T05:02:08;100309.73;;;5.85;71.86
37066;BME280;22981;43.080;25.550;2023-03-19T05:04:36;100311.73;;;5.87;71.82
37066;BME280;22981;43.080;25.550;2023-03-19T05:07:04;100312.70;;;5.90;71.81
37066;BME280;22981;43.080;25.550;2023-03-19T05:09:31;100309.43;;;5.92;71.77
37066;BME280;22981;43.080;25.550;2023-03-19T05:11:59;100308.59;;;5.96;71.76
37066;BME280;22981;43.080;25.550;2023-03-19T05:14:26;100306.58;;;6.02;71.78
37066;BME280;22981;43.080;25.550;2023-03-19T05:16:54;100309.73;;;6.10;71.68
37066;BME280;22981;43.080;25.550;2023-03-19T05:19:22;100304.55;;;6.12;71.60
37066;BME280;22981;43.080;25.550;2023-03-19T05:21:50;100304.23;;;6.07;71.73
37066;BME280;22981;43.080;25.550;2023-03-19T05:24:18;100303.73;;;6.03;71.84
37066;BME280;22981;43.080;25.550;2023-03-19T05:26:46;100306.08;;;5.98;71.96
37066;BME280;22981;43.080;25.550;2023-03-19T05:29:14;100307.91;;;5.98;72.07
37066;BME280;22981;43.080;25.550;2023-03-19T05:31:41;100310.39;;;5.99;72.16
37066;BME280;22981;43.080;25.550;2023-03-19T05:34:09;100307.27;;;6.00;72.16
37066;BME280;22981;43.080;25.550;2023-03-19T05:36:36;100310.38;;;6.03;72.20
37066;BME280;22981;43.080;25.550;2023-03-19T05:39:04;100307.91;;;6.06;72.17
37066;BME280;22981;43.080;25.550;2023-03-19T05:41:31;100308.08;;;6.09;72.12
37066;BME280;22981;43.080;25.550;2023-03-19T05:43:59;100312.70;;;6.11;72.13
37066;BME280;22981;43.080;25.550;2023-03-19T05:46:27;100313.21;;;6.10;72.10
37066;BME280;22981;43.080;25.550;2023-03-19T05:48:54;100315.87;;;6.10;72.13
37066;BME280;22981;43.080;25.550;2023-03-19T05:51:22;100313.86;;;6.12;72.16
37066;BME280;22981;43.080;25.550;2023-03-19T05:53:49;100318.34;;;6.16;72.16
37066;BME280;22981;43.080;25.550;2023-03-19T05:56:17;100316.16;;;6.23;72.06
37066;BME280;22981;43.080;25.550;2023-03-19T05:58:44;100316.47;;;6.33;71.92
37066;BME280;22981;43.080;25.550;2023-03-19T06:01:12;100314.62;;;6.37;71.91
37066;BME280;22981;43.080;25.550;2023-03-19T06:03:40;100317.10;;;6.47;71.82
37066;BME280;22981;43.080;25.550;2023-03-19T06:06:07;100310.71;;;6.64;71.64
37066;BME280;22981;43.080;25.550;2023-03-19T06:08:35;100305.13;;;6.82;71.31
37066;BME280;22981;43.080;25.550;2023-03-19T06:11:03;100311.53;;;6.96;71.03
37066;BME280;22981;43.080;25.550;2023-03-19T06:13:30;100307.66;;;7.07;70.84
37066;BME280;22981;43.080;25.550;2023-03-19T06:15:58;100312.77;;;7.12;70.66
37066;BME280;22981;43.080;25.550;2023-03-19T06:18:26;100302.06;;;7.20;70.52
37066;BME280;22981;43.080;25.550;2023-03-19T06:20:54;100304.17;;;7.29;70.37
37066;BME280;22981;43.080;25.550;2023-03-19T06:23:22;100308.45;;;7.34;70.15
37066;BME280;22981;43.080;25.550;2023-03-19T06:25:49;100305.73;;;7.42;70.09
37066;BME280;22981;43.080;25.550;2023-03-19T06:28:17;100308.42;;;7.57;69.84
37066;BME280;22981;43.080;25.550;2023-03-19T06:30:44;100301.13;;;7.74;69.47
37066;BME280;22981;43.080;25.550;2023-03-19T06:33:12;100311.86;;;7.85;69.14
37066;BME280;22981;43.080;25.550;2023-03-19T06:35:40;100314.45;;;7.93;68.85
37066;BME280;22981;43.080;25.550;2023-03-19T06:38:07;100311.52;;;8.02;68.67
37066;BME280;22981;43.080;25.550;2023-03-19T06:40:35;100307.33;;;8.04;68.24
37066;BME280;22981;43.080;25.550;2023-03-19T06:43:03;100307.33;;;8.04;68.22
37066;BME280;22981;43.080;25.550;2023-03-19T06:45:30;100303.80;;;8.08;68.16
37066;BME280;22981;43.080;25.550;2023-03-19T06:47:58;100294.92;;;8.11;67.89
37066;BME280;22981;43.080;25.550;2023-03-19T06:50:26;100295.52;;;8.17;67.49
37066;BME280;22981;43.080;25.550;2023-03-19T06:52:53;100300.20;;;8.30;67.33
37066;BME280;22981;43.080;25.550;2023-03-19T06:55:21;100304.61;;;8.42;67.08
37066;BME280;22981;43.080;25.550;2023-03-19T06:57:49;100304.22;;;8.60;66.60
37066;BME280;22981;43.080;25.550;2023-03-19T07:00:17;100310.12;;;8.70;66.33
37066;BME280;22981;43.080;25.550;2023-03-19T07:02:46;100313.41;;;8.87;66.25
37066;BME280;22981;43.080;25.550;2023-03-19T07:05:14;100300.96;;;9.05;65.74
37066;BME280;22981;43.080;25.550;2023-03-19T07:07:41;100309.69;;;9.13;65.47
37066;BME280;22981;43.080;25.550;2023-03-19T07:10:09;100302.25;;;9.30;65.21
37066;BME280;22981;43.080;25.550;2023-03-19T07:12:37;100302.69;;;9.44;64.96
37066;BME280;22981;43.080;25.550;2023-03-19T07:15:05;100303.83;;;9.57;64.62
37066;BME280;22981;43.080;25.550;2023-03-19T07:17:33;100303.62;;;9.69;64.33
37066;BME280;22981;43.080;25.550;2023-03-19T07:20:01;100310.34;;;9.86;64.02
37066;BME280;22981;43.080;25.550;2023-03-19T07:22:28;100301.63;;;10.06;63.76
37066;BME280;22981;43.080;25.550;2023-03-19T07:24:56;100300.80;;;10.22;63.24
37066;BME280;22981;43.080;25.550;2023-03-19T07:27:23;100298.44;;;10.34;62.83
37066;BME280;22981;43.080;25.550;2023-03-19T07:29:51;100292.41;;;10.43;62.47
37066;BME280;22981;43.080;25.550;2023-03-19T07:32:21;100296.47;;;10.49;61.91
37066;BME280;22981;43.080;25.550;2023-03-19T07:34:49;100296.22;;;10.44;61.33
37066;BME280;22981;43.080;25.550;2023-03-19T07:37:17;100298.80;;;10.42;61.34
37066;BME280;22981;43.080;25.550;2023-03-19T07:39:44;100298.50;;;10.47;61.36
37066;BME280;22981;43.080;25.550;2023-03-19T07:42:12;100292.59;;;10.59;61.20
37066;BME280;22981;43.080;25.550;2023-03-19T07:44:39;100293.77;;;10.73;60.66
37066;BME280;22981;43.080;25.550;2023-03-19T07:47:07;100286.60;;;10.87;60.12
37066;BME280;22981;43.080;25.550;2023-03-19T07:49:35;100287.86;;;10.91;59.91
37066;BME280;22981;43.080;25.550;2023-03-19T07:52:02;100282.95;;;11.01;59.52
37066;BME280;22981;43.080;25.550;2023-03-19T07:54:30;100284.84;;;11.14;59.08
37066;BME280;22981;43.080;25.550;2023-03-19T07:56:57;100277.42;;;11.29;58.67
37066;BME280;22981;43.080;25.550;2023-03-19T07:59:25;100274.86;;;11.32;58.15
37066;BME280;22981;43.080;25.550;2023-03-19T08:01:52;100279.61;;;11.37;58.21
37066;BME280;22981;43.080;25.550;2023-03-19T08:04:20;100276.09;;;11.43;57.65
37066;BME280;22981;43.080;25.550;2023-03-19T08:06:48;100272.91;;;11.37;57.55
37066;BME280;22981;43.080;25.550;2023-03-19T08:09:16;100279.31;;;11.49;57.77
37066;BME280;22981;43.080;25.550;2023-03-19T08:11:43;100272.50;;;11.66;57.18
37066;BME280;22981;43.080;25.550;2023-03-19T08:14:11;100270.52;;;11.77;56.83
37066;BME280;22981;43.080;25.550;2023-03-19T08:16:38;100263.94;;;12.00;56.68
37066;BME280;22981;43.080;25.550;2023-03-19T08:19:06;100265.22;;;12.20;56.20
37066;BME280;22981;43.080;25.550;2023-03-19T08:21:35;100267.97;;;12.42;55.68
37066;BME280;22981;43.080;25.550;2023-03-19T08:24:02;100257.23;;;12.65;55.00
37066;BME280;22981;43.080;25.550;2023-03-19T08:26:30;100256.09;;;12.86;54.00
37066;BME280;22981;43.080;25.550;2023-03-19T08:28:59;100258.13;;;12.90;53.22
37066;BME280;22981;43.080;25.550;2023-03-19T08:31:27;100260.65;;;12.85;52.65
37066;BME280;22981;43.080;25.550;2023-03-19T08:33:54;100258.72;;;12.92;52.97
37066;BME280;22981;43.080;25.550;2023-03-19T08:36:24;100258.55;;;13.19;52.94
37066;BME280;22981;43.080;25.550;2023-03-19T08:38:52;100254.36;;;13.36;52.43
37066;BME280;22981;43.080;25.550;2023-03-19T08:41:20;100251.05;;;13.59;52.15
37066;BME280;22981;43.080;25.550;2023-03-19T08:43:48;100250.23;;;13.84;51.86
37066;BME280;22981;43.080;25.550;2023-03-19T08:46:16;100248.66;;;13.94;51.45
37066;BME280;22981;43.080;25.550;2023-03-19T08:48:44;100239.23;;;14.13;50.83
37066;BME280;22981;43.080;25.550;2023-03-19T08:51:13;100244.47;;;14.26;50.70
37066;BME280;22981;43.080;25.550;2023-03-19T08:53:40;100236.27;;;14.39;50.18
37066;BME280;22981;43.080;25.550;2023-03-19T08:56:08;100234.77;;;14.43;49.78
37066;BME280;22981;43.080;25.550;2023-03-19T08:58:36;100229.09;;;14.61;49.50
37066;BME280;22981;43.080;25.550;2023-03-19T09:01:07;100232.05;;;14.71;48.89
37066;BME280;22981;43.080;25.550;2023-03-19T09:03:37;100219.00;;;14.77;49.06
37066;BME280;22981;43.080;25.550;2023-03-19T09:06:06;100220.44;;;15.00;48.70
37066;BME280;22981;43.080;25.550;2023-03-19T09:08:35;100205.94;;;15.13;48.18
37066;BME280;22981;43.080;25.550;2023-03-19T09:11:04;100202.61;;;15.32;47.62
37066;BME280;22981;43.080;25.550;2023-03-19T09:13:32;100202.65;;;15.56;47.32
37066;BME280;22981;43.080;25.550;2023-03-19T09:15:59;100205.22;;;15.62;46.25
37066;BME280;22981;43.080;25.550;2023-03-19T09:18:27;100194.72;;;15.51;46.73
37066;BME280;22981;43.080;25.550;2023-03-19T09:20:55;100199.00;;;15.62;46.53
37066;BME280;22981;43.080;25.550;2023-03-19T09:23:22;100195.98;;;15.70;45.76
37066;BME280;22981;43.080;25.550;2023-03-19T09:25:50;100187.24;;;15.77;45.97
37066;BME280;22981;43.080;25.550;2023-03-19T09:28:17;100190.44;;;15.88;46.43
37066;BME280;22981;43.080;25.550;2023-03-19T09:30:47;100183.66;;;16.12;46.47
37066;BME280;22981;43.080;25.550;2023-03-19T09:33:16;100177.34;;;16.32;45.92
37066;BME280;22981;43.080;25.550;2023-03-19T09:35:48;100174.57;;;16.44;45.32
37066;BME280;22981;43.080;25.550;2023-03-19T09:38:19;100166.14;;;16.55;44.67
37066;BME280;22981;43.080;25.550;2023-03-19T09:43:36;100178.06;;;16.70;43.95
37066;BME280;22981;43.080;25.550;2023-03-19T09:46:05;100169.27;;;16.63;43.68
37066;BME280;22981;43.080;25.550;2023-03-19T09:48:53;100168.34;;;16.72;44.19
37066;BME280;22981;43.080;25.550;2023-03-19T09:51:23;100159.17;;;16.87;43.92
37066;BME280;22981;43.080;25.550;2023-03-19T09:53:58;100157.00;;;17.18;44.08
37066;BME280;22981;43.080;25.550;2023-03-19T09:56:27;100157.50;;;17.34;43.26
37066;BME280;22981;43.080;25.550;2023-03-19T09:58:54;100147.12;;;17.26;42.39
37066;BME280;22981;43.080;25.550;2023-03-19T10:01:25;100139.11;;;17.17;42.32
37066;BME280;22981;43.080;25.550;2023-03-19T10:06:36;100134.16;;;17.28;42.31
37066;BME280;22981;43.080;25.550;2023-03-19T10:15:00;100129.67;;;17.56;42.65
37066;BME280;22981;43.080;25.550;2023-03-19T10:17:31;100125.83;;;17.71;43.02
37066;BME280;22981;43.080;25.550;2023-03-19T10:20:04;100129.23;;;17.81;42.69
37066;BME280;22981;43.080;25.550;2023-03-19T10:22:37;100118.72;;;17.84;42.60
37066;BME280;22981;43.080;25.550;2023-03-19T10:25:17;100115.31;;;17.94;42.02
37066;BME280;22981;43.080;25.550;2023-03-19T10:27:44;100112.59;;;17.91;41.57
37066;BME280;22981;43.080;25.550;2023-03-19T10:30:14;100106.73;;;17.78;41.16
37066;BME280;22981;43.080;25.550;2023-03-19T10:32:44;100112.39;;;17.76;41.39
37066;BME280;22981;43.080;25.550;2023-03-19T10:35:18;100108.38;;;17.81;41.35
37066;BME280;22981;43.080;25.550;2023-03-19T10:37:51;100102.37;;;17.76;40.63
37066;BME280;22981;43.080;25.550;2023-03-19T10:40:25;100099.19;;;17.63;40.80
37066;BME280;22981;43.080;25.550;2023-03-19T10:43:02;100095.28;;;17.53;40.88
37066;BME280;22981;43.080;25.550;2023-03-19T10:45:47;100089.39;;;17.59;41.34
37066;BME280;22981;43.080;25.550;2023-03-19T10:48:17;100084.23;;;17.77;41.28
37066;BME280;22981;43.080;25.550;2023-03-19T10:51:00;100069.25;;;17.91;41.08
37066;BME280;22981;43.080;25.550;2023-03-19T10:53:32;100072.66;;;18.06;40.89
37066;BME280;22981;43.080;25.550;2023-03-19T10:56:09;100066.42;;;18.06;40.60
37066;BME280;22981;43.080;25.550;2023-03-19T10:58:36;100063.39;;;17.99;40.15
37066;BME280;22981;43.080;25.550;2023-03-19T11:01:10;100055.45;;;17.93;40.85
37066;BME280;22981;43.080;25.550;2023-03-19T11:03:48;100053.37;;;18.00;41.44
37066;BME280;22981;43.080;25.550;2023-03-19T11:06:26;100056.17;;;18.08;41.58
37066;BME280;22981;43.080;25.550;2023-03-19T11:11:45;100047.95;;;18.24;41.31
37066;BME280;22981;43.080;25.550;2023-03-19T11:16:59;100039.16;;;18.15;40.69
37066;BME280;22981;43.080;25.550;2023-03-19T11:19:29;100041.33;;;18.15;41.09
37066;BME280;22981;43.080;25.550;2023-03-19T11:24:39;100026.84;;;18.29;41.12
37066;BME280;22981;43.080;25.550;2023-03-19T11:27:09;100023.67;;;18.37;41.08
37066;BME280;22981;43.080;25.550;2023-03-19T11:29:40;100017.13;;;18.36;40.81
37066;BME280;22981;43.080;25.550;2023-03-19T11:35:21;100008.50;;;18.41;40.58
37066;BME280;22981;43.080;25.550;2023-03-19T11:37:53;100013.75;;;18.50;40.46
37066;BME280;22981;43.080;25.550;2023-03-19T11:40:28;100015.45;;;18.62;40.33
37066;BME280;22981;43.080;25.550;2023-03-19T11:45:58;100008.59;;;18.81;39.90
37066;BME280;22981;43.080;25.550;2023-03-19T11:48:36;99999.10;;;18.81;39.74
37066;BME280;22981;43.080;25.550;2023-03-19T11:53:33;99989.66;;;18.89;39.35
37066;BME280;22981;43.080;25.550;2023-03-19T12:07:15;99986.33;;;19.24;39.02
37066;BME280;22981;43.080;25.550;2023-03-19T12:15:37;99986.64;;;19.33;38.49
37066;BME280;22981;43.080;25.550;2023-03-19T12:23:45;99969.24;;;19.31;37.80
37066;BME280;22981;43.080;25.550;2023-03-19T12:26:31;99969.27;;;19.34;37.54
37066;BME280;22981;43.080;25.550;2023-03-19T12:29:14;99967.64;;;19.33;37.56
37066;BME280;22981;43.080;25.550;2023-03-19T12:32:03;99972.56;;;19.41;37.74
37066;BME280;22981;43.080;25.550;2023-03-19T12:34:32;99960.34;;;19.43;37.33
37066;BME280;22981;43.080;25.550;2023-03-19T12:39:49;99962.21;;;19.33;37.33
37066;BME280;22981;43.080;25.550;2023-03-19T12:42:14;99960.34;;;19.48;37.12
37066;BME280;22981;43.080;25.550;2023-03-19T12:44:48;99961.97;;;19.42;36.62
37066;BME280;22981;43.080;25.550;2023-03-19T12:47:19;99956.25;;;19.38;37.19
37066;BME280;22981;43.080;25.550;2023-03-19T12:49:52;99957.35;;;19.42;37.10
37066;BME280;22981;43.080;25.550;2023-03-19T12:52:29;99956.58;;;19.49;36.87
37066;BME280;22981;43.080;25.550;2023-03-19T12:55:05;99954.41;;;19.49;36.51
37066;BME280;22981;43.080;25.550;2023-03-19T12:57:36;99951.67;;;19.46;36.72
37066;BME280;22981;43.080;25.550;2023-03-19T13:00:16;99945.18;;;19.55;36.36
37066;BME280;22981;43.080;25.550;2023-03-19T13:08:14;99936.70;;;19.39;36.91
37066;BME280;22981;43.080;25.550;2023-03-19T13:10:42;99937.45;;;19.21;37.21
37066;BME280;22981;43.080;25.550;2023-03-19T13:16:05;99932.34;;;19.33;36.69
37066;BME280;22981;43.080;25.550;2023-03-19T13:21:14;99927.38;;;19.12;36.93
37066;BME280;22981;43.080;25.550;2023-03-19T13:23:39;99930.86;;;19.05;37.41
37066;BME280;22981;43.080;25.550;2023-03-19T13:26:10;99921.38;;;19.10;37.32
37066;BME280;22981;43.080;25.550;2023-03-19T13:28:59;99917.30;;;19.10;37.00
37066;BME280;22981;43.080;25.550;2023-03-19T13:31:32;99915.69;;;19.06;37.21
37066;BME280;22981;43.080;25.550;2023-03-19T13:34:03;99908.02;;;18.95;37.08
37066;BME280;22981;43.080;25.550;2023-03-19T13:36:36;99901.51;;;18.96;37.19
37066;BME280;22981;43.080;25.550;2023-03-19T13:39:17;99903.68;;;18.97;37.27
37066;BME280;22981;43.080;25.550;2023-03-19T13:41:52;99900.91;;;18.84;37.03
37066;BME280;22981;43.080;25.550;2023-03-19T13:52:49;99891.33;;;18.32;37.95
37066;BME280;22981;43.080;25.550;2023-03-19T13:55:32;99892.39;;;18.25;38.21
37066;BME280;22981;43.080;25.550;2023-03-19T14:03:22;99884.63;;;18.07;38.67
37066;BME280;22981;43.080;25.550;2023-03-19T14:05:52;99890.86;;;18.05;38.58
37066;BME280;22981;43.080;25.550;2023-03-19T14:08:23;99883.48;;;17.98;38.83
37066;BME280;22981;43.080;25.550;2023-03-19T14:11:00;99884.83;;;17.95;39.03
37066;BME280;22981;43.080;25.550;2023-03-19T14:13:46;99879.06;;;17.87;38.96
37066;BME280;22981;43.080;25.550;2023-03-19T14:16:21;99877.91;;;17.80;39.18
37066;BME280;22981;43.080;25.550;2023-03-19T14:18:49;99878.98;;;17.79;39.28